createdAt,value
2018-10-19T00:00:31.367Z,30.82
2018-10-19T00:01:35.444Z,29.20
2018-10-19T00:02:39.581Z,27.42
2018-10-19T00:03:43.602Z,35.00
2018-10-19T00:04:47.692Z,34.53
2018-10-19T00:05:51.736Z,34.05
2018-10-19T00:06:55.898Z,28.90
2018-10-19T00:08:00.020Z,39.42
2018-10-19T00:09:05.519Z,32.03
2018-10-19T00:10:10.066Z,31.05
2018-10-19T00:11:14.262Z,33.45
2018-10-19T00:12:18.275Z,32.03
2018-10-19T00:13:22.327Z,33.53
2018-10-19T00:14:26.412Z,30.32
2018-10-19T00:15:30.535Z,28.55
2018-10-19T00:16:34.559Z,34.15
2018-10-19T00:17:38.597Z,36.25
2018-10-19T00:18:42.751Z,35.03
2018-10-19T00:19:46.795Z,34.55
2018-10-19T00:20:50.901Z,29.87
2018-10-19T00:21:54.956Z,31.55
2018-10-19T00:22:59.139Z,34.30
2018-10-19T00:24:03.220Z,29.87
2018-10-19T00:25:07.736Z,33.45
2018-10-19T00:26:11.916Z,31.97
2018-10-19T00:27:16.135Z,38.88
2018-10-19T00:28:20.159Z,31.42
2018-10-19T00:29:24.265Z,36.50
2018-10-19T00:30:28.302Z,33.60
2018-10-19T00:31:32.446Z,35.25
2018-10-19T00:32:36.541Z,30.92
2018-10-19T00:33:40.839Z,30.45
2018-10-19T00:34:44.909Z,28.83
2018-10-19T00:35:49.073Z,27.27
2018-10-19T00:36:53.328Z,30.65
2018-10-19T00:37:57.248Z,34.53
2018-10-19T00:39:01.362Z,30.68
2018-10-19T00:40:05.685Z,31.23
2018-10-19T00:41:09.803Z,33.48
2018-10-19T00:42:13.966Z,26.60
2018-10-19T00:43:18.037Z,32.13
2018-10-19T00:44:22.193Z,28.38
2018-10-19T00:45:31.540Z,33.05
2018-10-19T00:46:35.599Z,31.52
2018-10-19T00:47:39.755Z,32.40
2018-10-19T00:48:43.797Z,34.23
2018-10-19T00:49:48.029Z,32.48
2018-10-19T00:50:52.194Z,31.68
2018-10-19T00:51:56.226Z,32.23
2018-10-19T00:53:00.454Z,35.65
2018-10-19T00:54:04.448Z,30.37
2018-10-19T00:55:08.508Z,33.90
2018-10-19T00:56:12.692Z,29.67
2018-10-19T00:57:16.879Z,32.60
2018-10-19T00:58:20.923Z,33.28
2018-10-19T00:59:24.939Z,36.68
2018-10-19T01:00:29.040Z,30.72
2018-10-19T01:01:33.099Z,34.18
2018-10-19T01:02:37.154Z,30.72
2018-10-19T01:03:41.318Z,32.80
2018-10-19T01:04:45.389Z,28.70
2018-10-19T01:05:49.423Z,28.30
2018-10-19T01:06:53.547Z,29.10
2018-10-19T01:07:57.605Z,27.30
2018-10-19T01:09:01.800Z,36.77
2018-10-19T01:10:06.175Z,26.50
2018-10-19T01:11:10.269Z,26.52
2018-10-19T01:12:14.290Z,37.78
2018-10-19T01:13:18.387Z,24.63
2018-10-19T01:14:22.472Z,26.27
2018-10-19T01:15:27.881Z,31.02
2018-10-19T01:16:32.117Z,23.10
2018-10-19T01:17:36.673Z,30.00
2018-10-19T01:18:40.725Z,24.30
2018-10-19T01:19:44.898Z,30.27
2018-10-19T01:20:48.914Z,32.55
2018-10-19T01:21:52.953Z,28.40
2018-10-19T01:22:57.065Z,25.25
2018-10-19T01:24:01.064Z,29.48
2018-10-19T01:25:05.510Z,25.85
2018-10-19T01:26:09.540Z,27.40
2018-10-19T01:27:13.647Z,30.37
2018-10-19T01:28:17.837Z,21.52
2018-10-19T01:29:21.961Z,28.75
2018-10-19T01:30:26.063Z,24.45
2018-10-19T01:31:30.149Z,27.10
2018-10-19T01:32:34.168Z,24.75
2018-10-19T01:33:38.272Z,24.02
2018-10-19T01:34:42.474Z,26.00
2018-10-19T01:35:46.641Z,24.52
2018-10-19T01:36:50.737Z,24.32
2018-10-19T01:37:55.249Z,24.52
2018-10-19T01:38:59.303Z,30.30
2018-10-19T01:40:03.567Z,23.27
2018-10-19T01:41:07.698Z,24.47
2018-10-19T01:42:11.814Z,23.25
2018-10-19T01:43:15.847Z,22.58
2018-10-19T01:44:20.016Z,23.02
2018-10-19T01:45:24.118Z,28.05
2018-10-19T01:46:28.262Z,27.85
2018-10-19T01:47:32.356Z,24.12
2018-10-19T01:48:36.451Z,27.13
2018-10-19T01:49:40.551Z,21.90
2018-10-19T01:50:44.642Z,22.50
2018-10-19T01:51:48.668Z,26.00
2018-10-19T01:52:52.986Z,21.73
2018-10-19T01:53:57.071Z,25.10
2018-10-19T01:55:01.167Z,28.25
2018-10-19T01:56:05.316Z,22.10
2018-10-19T01:57:09.425Z,27.65
2018-10-19T01:58:13.646Z,29.60
2018-10-19T01:59:17.790Z,27.98
2018-10-19T02:00:21.815Z,27.15
2018-10-19T02:01:26.041Z,24.65
2018-10-19T02:02:30.097Z,25.80
2018-10-19T02:03:34.168Z,24.72
2018-10-19T02:04:38.294Z,29.63
2018-10-19T02:05:42.419Z,25.37
2018-10-19T02:06:46.452Z,26.48
2018-10-19T02:07:50.539Z,32.85
2018-10-19T02:08:54.602Z,27.52
2018-10-19T02:09:58.675Z,25.75
2018-10-19T02:11:02.763Z,23.18
2018-10-19T02:12:07.102Z,33.80
2018-10-19T02:13:11.204Z,28.00
2018-10-19T02:14:15.260Z,27.17
2018-10-19T02:15:19.443Z,28.05
2018-10-19T02:16:23.632Z,29.85
2018-10-19T02:17:27.670Z,28.25
2018-10-19T02:18:31.795Z,26.68
2018-10-19T02:19:36.499Z,27.82
2018-10-19T02:20:40.584Z,28.45
2018-10-19T02:21:44.663Z,25.15
2018-10-19T02:22:48.790Z,28.62
2018-10-19T02:23:52.952Z,27.87
2018-10-19T02:24:57.033Z,32.93
2018-10-19T02:26:01.065Z,27.30
2018-10-19T02:27:05.522Z,26.45
2018-10-19T02:28:09.556Z,34.18
2018-10-19T02:29:13.645Z,31.35
2018-10-19T02:30:17.739Z,26.60
2018-10-19T02:31:21.890Z,25.45
2018-10-19T02:32:26.058Z,24.70
2018-10-19T02:33:30.142Z,28.30
2018-10-19T02:34:34.240Z,30.97
2018-10-19T02:35:38.558Z,25.05
2018-10-19T02:36:42.697Z,28.85
2018-10-19T02:37:46.877Z,31.65
2018-10-19T02:38:51.296Z,27.52
2018-10-19T02:39:55.302Z,32.90
2018-10-19T02:40:59.659Z,28.50
2018-10-19T02:42:03.934Z,28.05
2018-10-19T02:43:08.008Z,39.65
2018-10-19T02:44:12.126Z,31.70
2018-10-19T02:45:16.235Z,30.55
2018-10-19T02:46:20.586Z,33.08
2018-10-19T02:47:24.732Z,28.10
2018-10-19T02:48:28.733Z,28.50
2018-10-19T02:49:32.783Z,32.98
2018-10-19T02:50:36.835Z,30.60
2018-10-19T02:51:40.844Z,32.78
2018-10-19T02:52:44.951Z,38.15
2018-10-19T02:53:49.024Z,32.67
2018-10-19T02:54:53.267Z,32.10
2018-10-19T02:55:57.347Z,28.83
2018-10-19T02:57:01.476Z,32.35
2018-10-19T02:58:05.460Z,30.35
2018-10-19T02:59:09.670Z,31.52
2018-10-19T03:00:13.658Z,30.50
2018-10-19T03:01:17.855Z,28.83
2018-10-19T03:02:21.930Z,33.75
2018-10-19T03:03:26.141Z,32.28
2018-10-19T03:04:30.166Z,29.57
2018-10-19T03:05:34.185Z,26.65
2018-10-19T03:06:38.207Z,32.23
2018-10-19T03:07:42.316Z,35.03
2018-10-19T03:08:46.345Z,29.25
2018-10-19T03:09:50.373Z,30.55
2018-10-19T03:10:54.481Z,38.48
2018-10-19T03:11:58.550Z,29.60
2018-10-19T03:13:02.728Z,29.98
2018-10-19T03:14:07.022Z,28.45
2018-10-19T03:15:11.109Z,25.55
2018-10-19T03:16:15.078Z,30.17
2018-10-19T03:17:19.273Z,26.93
2018-10-19T03:18:23.327Z,30.60
2018-10-19T03:19:27.486Z,25.37
2018-10-19T03:20:31.506Z,29.50
2018-10-19T03:21:35.584Z,30.08
2018-10-19T03:22:39.635Z,33.92
2018-10-19T03:23:43.671Z,27.80
2018-10-19T03:24:47.910Z,26.00
2018-10-19T03:25:58.257Z,28.87
2018-10-19T03:27:02.450Z,30.75
2018-10-19T03:28:06.404Z,30.32
2018-10-19T03:29:10.560Z,31.30
2018-10-19T03:30:14.620Z,32.30
2018-10-19T03:31:18.812Z,30.48
2018-10-19T03:32:22.738Z,29.90
2018-10-19T03:33:26.840Z,33.98
2018-10-19T03:34:30.899Z,27.02
2018-10-19T03:35:34.940Z,31.52
2018-10-19T03:36:39.201Z,28.98
2018-10-19T03:37:43.288Z,28.45
2018-10-19T03:38:47.397Z,31.57
2018-10-19T03:39:51.595Z,31.45
2018-10-19T03:40:55.596Z,30.05
2018-10-19T03:41:59.708Z,28.35
2018-10-19T03:43:04.340Z,26.87
2018-10-19T03:44:08.392Z,28.12
2018-10-19T03:45:12.496Z,31.95
2018-10-19T03:46:16.566Z,29.00
2018-10-19T03:47:20.688Z,33.20
2018-10-19T03:48:24.714Z,27.85
2018-10-19T03:49:28.837Z,28.20
2018-10-19T03:50:32.920Z,28.98
2018-10-19T03:51:37.010Z,24.52
2018-10-19T03:52:40.991Z,29.63
2018-10-19T03:53:45.069Z,34.55
2018-10-19T03:54:49.281Z,33.58
2018-10-19T03:55:53.317Z,25.12
2018-10-19T03:56:57.417Z,28.17
2018-10-19T03:58:01.553Z,29.42
2018-10-19T03:59:06.082Z,30.80
2018-10-19T04:00:10.009Z,29.50
2018-10-19T04:01:14.080Z,30.88
2018-10-19T04:02:18.187Z,31.10
2018-10-19T04:03:22.875Z,29.95
2018-10-19T04:04:27.061Z,32.50
2018-10-19T04:05:31.329Z,25.50
2018-10-19T04:06:35.348Z,30.82
2018-10-19T04:07:39.435Z,26.40
2018-10-19T04:08:43.480Z,29.98
2018-10-19T04:09:47.713Z,32.15
2018-10-19T04:10:51.735Z,27.05
2018-10-19T04:11:55.797Z,26.00
2018-10-19T04:12:59.816Z,31.42
2018-10-19T04:14:03.906Z,30.90
2018-10-19T04:15:08.932Z,30.95
2018-10-19T04:16:12.902Z,26.45
2018-10-19T04:17:17.114Z,27.40
2018-10-19T04:18:21.204Z,27.42
2018-10-19T04:19:25.335Z,26.12
2018-10-19T04:20:29.395Z,30.23
2018-10-19T04:21:33.877Z,27.95
2018-10-19T04:22:37.934Z,28.60
2018-10-19T04:23:42.103Z,26.33
2018-10-19T04:24:46.164Z,36.35
2018-10-19T04:25:50.231Z,27.62
2018-10-19T04:26:54.329Z,28.05
2018-10-19T04:27:58.355Z,28.05
2018-10-19T04:29:02.780Z,26.87
2018-10-19T04:30:07.600Z,32.65
2018-10-19T04:31:11.719Z,26.70
2018-10-19T04:32:15.868Z,30.50
2018-10-19T04:33:20.012Z,26.57
2018-10-19T04:34:24.178Z,29.52
2018-10-19T04:35:28.384Z,32.35
2018-10-19T04:36:32.677Z,32.20
2018-10-19T04:37:36.810Z,29.35
2018-10-19T04:38:40.827Z,23.35
2018-10-19T04:39:44.962Z,28.40
2018-10-19T04:40:49.005Z,27.32
2018-10-19T04:41:53.169Z,29.18
2018-10-19T04:42:57.238Z,30.77
2018-10-19T04:44:01.280Z,28.25
2018-10-19T04:45:05.900Z,27.62
2018-10-19T04:46:10.044Z,31.00
2018-10-19T04:47:14.254Z,36.48
2018-10-19T04:48:18.307Z,26.80
2018-10-19T04:49:22.368Z,28.38
2018-10-19T04:50:26.462Z,29.37
2018-10-19T04:51:30.495Z,33.33
2018-10-19T04:52:34.610Z,29.10
2018-10-19T04:53:38.691Z,33.45
2018-10-19T04:54:43.049Z,26.27
2018-10-19T04:55:47.205Z,34.03
2018-10-19T04:56:51.263Z,32.10
2018-10-19T04:57:55.334Z,31.42
2018-10-19T04:58:59.520Z,28.15
2018-10-19T05:00:03.549Z,31.73
2018-10-19T05:01:07.997Z,29.25
2018-10-19T05:02:12.290Z,32.35
2018-10-19T05:03:16.388Z,33.05
2018-10-19T05:04:20.532Z,32.67
2018-10-19T05:05:24.720Z,28.92
2018-10-19T05:06:28.930Z,29.45
2018-10-19T05:07:32.852Z,27.82
2018-10-19T05:08:37.015Z,29.90
2018-10-19T05:09:41.072Z,31.80
2018-10-19T05:10:45.283Z,34.65
2018-10-19T05:11:49.350Z,27.20
2018-10-19T05:12:53.421Z,28.45
2018-10-19T05:13:57.665Z,33.28
2018-10-19T05:15:01.627Z,30.80
2018-10-19T05:16:05.879Z,32.45
2018-10-19T05:17:10.573Z,31.33
2018-10-19T05:18:14.620Z,27.98
2018-10-19T05:19:18.745Z,32.70
2018-10-19T05:20:22.865Z,34.33
2018-10-19T05:21:26.929Z,35.58
2018-10-19T05:22:31.065Z,29.25
2018-10-19T05:23:35.124Z,25.85
2018-10-19T05:24:39.352Z,30.82
2018-10-19T05:25:43.469Z,28.70
2018-10-19T05:26:47.470Z,28.80
2018-10-19T05:27:51.533Z,32.58
2018-10-19T05:28:56.041Z,32.67
2018-10-19T05:30:00.080Z,29.52
2018-10-19T05:31:04.271Z,28.70
2018-10-19T05:32:08.443Z,36.20
2018-10-19T05:33:12.406Z,33.30
2018-10-19T05:34:16.431Z,32.70
2018-10-19T05:35:20.538Z,37.73
2018-10-19T05:36:24.793Z,33.05
2018-10-19T05:37:29.109Z,37.85
2018-10-19T05:38:33.323Z,35.88
2018-10-19T05:39:37.489Z,38.92
2018-10-19T05:40:41.549Z,30.52
2018-10-19T05:41:45.667Z,31.25
2018-10-19T05:42:49.754Z,36.75
2018-10-19T05:43:53.847Z,34.88
2018-10-19T05:44:58.102Z,34.00
2018-10-19T05:46:02.134Z,29.15
2018-10-19T05:47:06.488Z,36.45
2018-10-19T05:48:11.130Z,31.35
2018-10-19T05:49:15.740Z,39.33
2018-10-19T05:50:19.888Z,33.28
2018-10-19T05:51:23.987Z,31.75
2018-10-19T05:52:28.069Z,39.25
2018-10-19T05:53:32.775Z,34.10
2018-10-19T05:54:36.889Z,29.75
2018-10-19T05:55:40.937Z,36.50
2018-10-19T05:56:44.945Z,40.63
2018-10-19T05:57:49.015Z,37.85
2018-10-19T05:58:53.151Z,37.25
2018-10-19T05:59:57.154Z,39.73
2018-10-19T06:01:01.240Z,38.55
2018-10-19T06:02:06.143Z,33.23
2018-10-19T06:03:10.198Z,37.55
2018-10-19T06:04:14.262Z,32.50
2018-10-19T06:05:18.328Z,36.95
2018-10-19T06:06:22.419Z,32.60
2018-10-19T06:07:33.202Z,32.63
2018-10-19T06:08:37.316Z,40.08
2018-10-19T06:09:41.382Z,37.88
2018-10-19T06:10:45.453Z,33.75
2018-10-19T06:11:49.550Z,36.42
2018-10-19T06:12:53.551Z,32.50
2018-10-19T06:13:57.732Z,40.17
2018-10-19T06:15:01.835Z,37.95
2018-10-19T06:16:06.170Z,43.08
2018-10-19T06:17:10.239Z,38.15
2018-10-19T06:18:14.392Z,37.75
2018-10-19T06:19:18.450Z,31.57
2018-10-19T06:20:22.553Z,36.63
2018-10-19T06:21:26.700Z,37.17
2018-10-19T06:22:30.735Z,40.43
2018-10-19T06:23:34.791Z,38.45
2018-10-19T06:24:38.854Z,43.38
2018-10-19T06:25:42.911Z,39.10
2018-10-19T06:26:46.983Z,41.15
2018-10-19T06:27:51.145Z,36.08
2018-10-19T06:28:55.361Z,39.53
2018-10-19T06:29:59.792Z,47.90
2018-10-19T06:31:04.184Z,36.68
2018-10-19T06:32:08.377Z,42.10
2018-10-19T06:33:12.457Z,37.45
2018-10-19T06:34:16.472Z,36.30
2018-10-19T06:35:20.654Z,43.68
2018-10-19T06:36:24.852Z,38.70
2018-10-19T06:37:28.955Z,39.35
2018-10-19T06:38:33.324Z,41.50
2018-10-19T06:39:37.486Z,39.35
2018-10-19T06:40:41.552Z,40.33
2018-10-19T06:41:45.711Z,46.30
2018-10-19T06:42:50.260Z,42.17
2018-10-19T06:43:54.315Z,39.83
2018-10-19T06:44:58.446Z,41.85
2018-10-19T06:46:02.845Z,35.35
2018-10-19T06:47:07.030Z,35.43
2018-10-19T06:48:10.981Z,35.50
2018-10-19T06:49:15.053Z,41.90
2018-10-19T06:50:19.395Z,34.23
2018-10-19T06:51:23.363Z,41.00
2018-10-19T06:52:27.556Z,34.65
2018-10-19T06:53:31.758Z,37.80
2018-10-19T06:54:35.980Z,41.98
2018-10-19T06:55:40.168Z,39.08
2018-10-19T06:56:44.588Z,35.33
2018-10-19T06:57:48.622Z,45.80
2018-10-19T06:58:52.823Z,37.38
2018-10-19T06:59:56.893Z,41.83
2018-10-19T07:01:01.018Z,43.52
2018-10-19T07:02:05.549Z,39.75
2018-10-19T07:03:09.803Z,37.38
2018-10-19T07:04:13.867Z,43.35
2018-10-19T07:05:17.979Z,43.75
2018-10-19T07:06:22.147Z,37.17
2018-10-19T07:07:26.288Z,40.70
2018-10-19T07:08:30.637Z,40.25
2018-10-19T07:09:34.609Z,35.70
2018-10-19T07:10:38.689Z,41.98
2018-10-19T07:11:42.771Z,42.73
2018-10-19T07:12:46.909Z,37.65
2018-10-19T07:13:51.051Z,41.02
2018-10-19T07:14:55.159Z,37.90
2018-10-19T07:15:59.386Z,40.15
2018-10-19T07:17:03.496Z,39.98
2018-10-19T07:18:07.621Z,36.95
2018-10-19T07:19:11.733Z,43.20
2018-10-19T07:20:15.854Z,46.40
2018-10-19T07:21:20.772Z,37.83
2018-10-19T07:22:25.292Z,38.88
2018-10-19T07:23:29.504Z,37.17
2018-10-19T07:24:33.612Z,42.00
2018-10-19T07:25:37.847Z,36.95
2018-10-19T07:26:42.158Z,42.70
2018-10-19T07:27:46.413Z,40.70
2018-10-19T07:28:50.512Z,45.35
2018-10-19T07:29:54.616Z,37.67
2018-10-19T07:30:58.758Z,36.40
2018-10-19T07:32:02.947Z,41.92
2018-10-19T07:33:06.991Z,36.70
2018-10-19T07:34:11.024Z,38.00
2018-10-19T07:35:15.141Z,42.65
2018-10-19T07:36:19.260Z,38.25
2018-10-19T07:37:23.558Z,47.70
2018-10-19T07:38:28.007Z,39.33
2018-10-19T07:39:32.342Z,38.85
2018-10-19T07:40:36.636Z,42.60
2018-10-19T07:41:40.760Z,44.95
2018-10-19T07:42:44.977Z,41.73
2018-10-19T07:43:49.076Z,43.33
2018-10-19T07:44:53.183Z,48.48
2018-10-19T07:45:57.268Z,35.25
2018-10-19T07:47:01.520Z,40.05
2018-10-19T07:48:05.854Z,43.05
2018-10-19T07:49:09.687Z,36.95
2018-10-19T07:50:13.916Z,39.20
2018-10-19T07:51:17.950Z,39.45
2018-10-19T07:52:22.132Z,35.85
2018-10-19T07:53:26.265Z,34.78
2018-10-19T07:54:30.437Z,41.05
2018-10-19T07:55:35.330Z,37.73
2018-10-19T07:56:39.456Z,40.52
2018-10-19T07:57:43.612Z,36.28
2018-10-19T07:58:47.705Z,38.60
2018-10-19T07:59:51.855Z,41.15
2018-10-19T08:00:56.056Z,40.10
2018-10-19T08:02:00.117Z,44.40
2018-10-19T08:03:04.467Z,41.90
2018-10-19T08:04:08.566Z,38.58
2018-10-19T08:05:12.682Z,42.20
2018-10-19T08:06:16.756Z,42.62
2018-10-19T08:07:20.870Z,35.05
2018-10-19T08:08:25.189Z,42.60
2018-10-19T08:09:29.333Z,36.48
2018-10-19T08:10:33.485Z,37.20
2018-10-19T08:11:37.773Z,37.90
2018-10-19T08:12:41.775Z,41.15
2018-10-19T08:13:46.029Z,39.98
2018-10-19T08:14:50.212Z,45.80
2018-10-19T08:15:54.379Z,37.58
2018-10-19T08:16:58.522Z,38.85
2018-10-19T08:18:02.764Z,37.05
2018-10-19T08:19:06.888Z,40.88
2018-10-19T08:20:11.396Z,38.65
2018-10-19T08:21:15.559Z,40.78
2018-10-19T08:22:20.881Z,36.63
2018-10-19T08:23:25.062Z,36.42
2018-10-19T08:24:29.108Z,39.85
2018-10-19T08:25:33.233Z,42.15
2018-10-19T08:26:37.452Z,38.65
2018-10-19T08:27:41.758Z,41.92
2018-10-19T08:28:45.784Z,38.17
2018-10-19T08:29:49.934Z,40.30
2018-10-19T08:30:54.273Z,41.68
2018-10-19T08:31:59.606Z,40.12
2018-10-19T08:33:03.625Z,36.28
2018-10-19T08:34:07.781Z,39.73
2018-10-19T08:35:11.915Z,41.98
2018-10-19T08:36:15.963Z,41.55
2018-10-19T08:37:20.146Z,36.58
2018-10-19T08:38:24.416Z,42.88
2018-10-19T08:39:28.654Z,32.73
2018-10-19T08:40:32.955Z,37.00
2018-10-19T08:41:37.198Z,37.98
2018-10-19T08:42:41.225Z,38.30
2018-10-19T08:43:45.643Z,44.18
2018-10-19T08:44:49.746Z,39.35
2018-10-19T08:45:53.968Z,42.67
2018-10-19T08:46:57.988Z,35.23
2018-10-19T08:48:02.211Z,38.50
2018-10-19T08:49:07.821Z,39.35
2018-10-19T08:50:11.868Z,39.18
2018-10-19T08:51:16.143Z,41.88
2018-10-19T08:52:20.270Z,33.75
2018-10-19T08:53:24.424Z,39.38
2018-10-19T08:54:28.542Z,38.17
2018-10-19T08:55:32.642Z,37.42
2018-10-19T08:56:36.659Z,43.00
2018-10-19T08:57:40.776Z,44.25
2018-10-19T08:58:44.842Z,34.78
2018-10-19T08:59:49.237Z,43.05
2018-10-19T09:00:53.456Z,52.15
2018-10-19T09:01:57.669Z,41.20
2018-10-19T09:03:01.981Z,42.45
2018-10-19T09:04:06.064Z,40.85
2018-10-19T09:05:10.246Z,41.08
2018-10-19T09:06:14.404Z,36.65
2018-10-19T09:07:18.459Z,36.25
2018-10-19T09:08:22.599Z,46.15
2018-10-19T09:09:26.785Z,36.30
2018-10-19T09:10:31.203Z,39.88
2018-10-19T09:11:35.389Z,44.00
2018-10-19T09:12:39.545Z,41.95
2018-10-19T09:13:43.501Z,51.48
2018-10-19T09:14:57.868Z,40.63
2018-10-19T09:16:02.028Z,37.35
2018-10-19T09:17:06.217Z,38.17
2018-10-19T09:18:10.462Z,37.85
2018-10-19T09:19:14.531Z,37.15
2018-10-19T09:20:18.569Z,41.28
2018-10-19T09:21:22.612Z,34.80
2018-10-19T09:22:26.780Z,36.28
2018-10-19T09:23:30.833Z,38.10
2018-10-19T09:24:34.854Z,43.42
2018-10-19T09:25:38.913Z,43.95
2018-10-19T09:26:44.192Z,37.88
2018-10-19T09:27:48.259Z,38.92
2018-10-19T09:28:52.476Z,38.48
2018-10-19T09:29:56.583Z,34.95
2018-10-19T09:31:00.638Z,39.18
2018-10-19T09:32:05.241Z,35.58
2018-10-19T09:33:09.643Z,41.00
2018-10-19T09:34:13.732Z,39.48
2018-10-19T09:35:24.200Z,40.85
2018-10-19T09:36:28.453Z,38.05
2018-10-19T09:37:32.397Z,39.73
2018-10-19T09:38:36.424Z,38.20
2018-10-19T09:39:40.549Z,38.15
2018-10-19T09:40:44.987Z,43.83
2018-10-19T09:41:49.054Z,36.48
2018-10-19T09:42:53.151Z,38.40
2018-10-19T09:43:57.268Z,39.53
2018-10-19T09:45:01.448Z,36.85
2018-10-19T09:46:05.734Z,36.48
2018-10-19T09:47:09.872Z,36.00
2018-10-19T09:48:13.942Z,34.98
2018-10-19T09:49:18.067Z,39.42
2018-10-19T09:50:22.181Z,43.10
2018-10-19T09:51:26.313Z,40.05
2018-10-19T09:52:31.112Z,35.20
2018-10-19T09:53:35.189Z,37.40
2018-10-19T09:54:39.284Z,34.50
2018-10-19T09:55:43.453Z,38.33
2018-10-19T09:56:47.582Z,40.03
2018-10-19T09:57:51.677Z,34.15
2018-10-19T09:58:55.836Z,40.50
2018-10-19T09:59:59.940Z,39.95
2018-10-19T10:01:08.197Z,38.50
2018-10-19T10:02:12.235Z,40.43
2018-10-19T10:03:16.363Z,39.45
2018-10-19T10:04:20.396Z,38.02
2018-10-19T10:05:24.493Z,35.90
2018-10-19T10:06:29.128Z,39.03
2018-10-19T10:07:33.165Z,42.05
2018-10-19T10:08:37.207Z,41.30
2018-10-19T10:09:41.259Z,40.58
2018-10-19T10:10:45.356Z,39.83
2018-10-19T10:11:49.482Z,38.80
2018-10-19T10:12:53.617Z,43.23
2018-10-19T10:13:57.699Z,42.45
2018-10-19T10:15:02.011Z,36.42
2018-10-19T10:16:05.998Z,38.70
2018-10-19T10:17:10.139Z,41.53
2018-10-19T10:18:14.099Z,38.13
2018-10-19T10:19:18.188Z,37.78
2018-10-19T10:20:22.241Z,43.60
2018-10-19T10:21:26.306Z,42.65
2018-10-19T10:22:30.471Z,39.90
2018-10-19T10:23:34.721Z,49.50
2018-10-19T10:24:38.762Z,41.15
2018-10-19T10:25:43.105Z,38.38
2018-10-19T10:26:47.281Z,40.48
2018-10-19T10:27:51.431Z,43.05
2018-10-19T10:28:55.747Z,42.08
2018-10-19T10:29:59.869Z,38.15
2018-10-19T10:31:06.652Z,38.10
2018-10-19T10:32:10.654Z,42.78
2018-10-19T10:33:14.800Z,38.30
2018-10-19T10:34:19.269Z,37.17
2018-10-19T10:35:23.438Z,41.92
2018-10-19T10:36:27.591Z,44.03
2018-10-19T10:37:31.819Z,45.12
2018-10-19T10:38:35.991Z,41.28
2018-10-19T10:39:40.055Z,41.50
2018-10-19T10:40:44.367Z,44.53
2018-10-19T10:41:48.466Z,40.35
2018-10-19T10:42:52.734Z,40.95
2018-10-19T10:43:57.011Z,49.45
2018-10-19T10:45:01.261Z,40.38
2018-10-19T10:46:05.743Z,41.80
2018-10-19T10:47:09.929Z,45.85
2018-10-19T10:48:13.955Z,38.92
2018-10-19T10:49:18.048Z,41.37
2018-10-19T10:50:22.229Z,44.85
2018-10-19T10:51:26.415Z,40.23
2018-10-19T10:52:30.542Z,44.35
2018-10-19T10:53:34.632Z,37.80
2018-10-19T10:54:38.776Z,42.50
2018-10-19T10:55:42.878Z,48.58
2018-10-19T10:56:46.851Z,42.85
2018-10-19T10:57:51.031Z,38.33
2018-10-19T10:58:55.472Z,38.20
2018-10-19T10:59:59.570Z,37.90
2018-10-19T11:01:06.449Z,42.58
2018-10-19T11:02:10.741Z,38.42
2018-10-19T11:03:14.872Z,44.85
2018-10-19T11:04:19.172Z,40.10
2018-10-19T11:05:23.256Z,42.08
2018-10-19T11:06:27.408Z,41.25
2018-10-19T11:07:31.703Z,43.92
2018-10-19T11:08:35.614Z,43.08
2018-10-19T11:09:39.880Z,42.67
2018-10-19T11:10:43.913Z,41.35
2018-10-19T11:11:48.054Z,45.38
2018-10-19T11:12:52.216Z,46.55
2018-10-19T11:13:56.284Z,43.65
2018-10-19T11:15:00.321Z,37.48
2018-10-19T11:16:04.896Z,39.95
2018-10-19T11:17:08.990Z,38.28
2018-10-19T11:18:13.448Z,42.73
2018-10-19T11:19:17.661Z,40.75
2018-10-19T11:20:21.908Z,41.37
2018-10-19T11:21:26.067Z,38.25
2018-10-19T11:22:30.118Z,41.50
2018-10-19T11:23:34.515Z,39.53
2018-10-19T11:24:38.841Z,40.33
2018-10-19T11:25:42.811Z,39.27
2018-10-19T11:26:47.146Z,37.67
2018-10-19T11:27:51.195Z,42.08
2018-10-19T11:28:55.973Z,41.15
2018-10-19T11:30:00.109Z,41.30
2018-10-19T11:31:04.505Z,43.08
2018-10-19T11:32:08.591Z,43.87
2018-10-19T11:33:12.699Z,42.55
2018-10-19T11:34:16.828Z,37.63
2018-10-19T11:35:20.891Z,43.83
2018-10-19T11:36:24.964Z,43.13
2018-10-19T11:37:29.104Z,37.73
2018-10-19T11:38:33.082Z,37.03
2018-10-19T11:39:46.704Z,41.18
2018-10-19T11:40:50.897Z,36.23
2018-10-19T11:41:55.016Z,38.83
2018-10-19T11:42:59.143Z,39.03
2018-10-19T11:44:03.344Z,40.78
2018-10-19T11:45:07.532Z,38.15
2018-10-19T11:46:11.712Z,43.55
2018-10-19T11:47:15.787Z,41.00
2018-10-19T11:48:19.872Z,35.95
2018-10-19T11:49:23.998Z,37.15
2018-10-19T11:50:28.041Z,34.40
2018-10-19T11:51:32.140Z,35.08
2018-10-19T11:52:36.337Z,37.73
2018-10-19T11:53:40.398Z,35.75
2018-10-19T11:54:44.474Z,35.98
2018-10-19T11:55:48.583Z,40.40
2018-10-19T11:56:52.669Z,44.80
2018-10-19T11:57:56.833Z,38.15
2018-10-19T11:59:00.912Z,32.78
2018-10-19T12:00:05.144Z,40.75
2018-10-19T12:01:09.249Z,38.75
2018-10-19T12:02:13.284Z,32.85
2018-10-19T12:03:17.338Z,37.53
2018-10-19T12:04:21.468Z,38.23
2018-10-19T12:05:25.672Z,34.80
2018-10-19T12:06:29.752Z,33.13
2018-10-19T12:07:33.909Z,37.15
2018-10-19T12:08:38.111Z,40.43
2018-10-19T12:09:42.335Z,33.70
2018-10-19T12:10:46.392Z,42.48
2018-10-19T12:11:50.419Z,34.43
2018-10-19T12:12:54.651Z,33.75
2018-10-19T12:13:58.742Z,33.08
2018-10-19T12:15:02.961Z,39.03
2018-10-19T12:16:07.430Z,40.05
2018-10-19T12:17:11.456Z,34.88
2018-10-19T12:18:15.542Z,35.95
2018-10-19T12:19:19.731Z,40.10
2018-10-19T12:20:24.007Z,34.00
2018-10-19T12:21:28.205Z,33.23
2018-10-19T12:22:33.227Z,32.88
2018-10-19T12:23:37.658Z,37.33
2018-10-19T12:24:42.022Z,32.10
2018-10-19T12:25:46.471Z,31.25
2018-10-19T12:26:51.088Z,37.98
2018-10-19T12:27:55.370Z,37.03
2018-10-19T12:28:59.745Z,34.95
2018-10-19T12:30:04.195Z,38.35
2018-10-19T12:31:09.202Z,37.03
2018-10-19T12:32:13.467Z,36.30
2018-10-19T12:33:17.760Z,35.63
2018-10-19T12:34:22.182Z,37.03
2018-10-19T12:35:26.584Z,38.98
2018-10-19T12:36:30.890Z,33.65
2018-10-19T12:37:35.188Z,38.10
2018-10-19T12:38:39.316Z,34.18
2018-10-19T12:39:43.389Z,34.60
2018-10-19T12:40:48.399Z,37.05
2018-10-19T12:41:53.486Z,42.80
2018-10-19T12:42:57.934Z,33.70
2018-10-19T12:44:02.281Z,38.65
2018-10-19T12:45:12.695Z,41.33
2018-10-19T12:46:30.525Z,30.35
2018-10-19T12:47:39.519Z,36.70
2018-10-19T12:48:50.653Z,33.38
2018-10-19T12:49:54.995Z,36.63
2018-10-19T12:51:00.541Z,40.58
2018-10-19T12:52:05.290Z,37.67
2018-10-19T12:53:09.906Z,36.42
2018-10-19T12:54:15.366Z,37.08
2018-10-19T12:55:19.936Z,32.03
2018-10-19T12:56:24.335Z,39.03
2018-10-19T12:57:28.485Z,35.03
2018-10-19T12:58:32.513Z,37.25
2018-10-19T12:59:37.205Z,36.13
2018-10-19T13:00:41.322Z,33.78
2018-10-19T13:01:45.483Z,37.17
2018-10-19T13:02:49.590Z,35.52
2018-10-19T13:03:53.864Z,29.25
2018-10-19T13:04:57.926Z,35.48
2018-10-19T13:06:02.188Z,37.45
2018-10-19T13:07:07.077Z,32.15
2018-10-19T13:08:11.118Z,33.38
2018-10-19T13:09:15.349Z,33.00
2018-10-19T13:10:19.355Z,35.60
2018-10-19T13:11:30.249Z,36.80
2018-10-19T13:12:34.316Z,35.88
2018-10-19T13:13:38.524Z,31.68
2018-10-19T13:14:42.605Z,40.17
2018-10-19T13:15:46.630Z,33.15
2018-10-19T13:16:50.736Z,34.63
2018-10-19T13:17:54.877Z,37.85
2018-10-19T13:18:58.979Z,39.83
2018-10-19T13:20:03.149Z,35.90
2018-10-19T13:21:07.386Z,34.63
2018-10-19T13:22:11.854Z,30.57
2018-10-19T13:23:16.315Z,32.83
2018-10-19T13:24:20.697Z,31.62
2018-10-19T13:25:25.166Z,31.73
2018-10-19T13:26:29.638Z,33.15
2018-10-19T13:27:33.752Z,31.55
2018-10-19T13:28:37.935Z,33.63
2018-10-19T13:29:42.036Z,37.65
2018-10-19T13:30:46.097Z,35.28
2018-10-19T13:31:50.236Z,33.08
2018-10-19T13:32:55.242Z,30.97
2018-10-19T13:33:59.291Z,31.17
2018-10-19T13:35:03.530Z,40.75
2018-10-19T13:36:07.617Z,32.05
2018-10-19T13:37:11.739Z,35.10
2018-10-19T13:38:15.837Z,33.78
2018-10-19T13:39:19.913Z,30.97
2018-10-19T13:40:23.993Z,28.57
2018-10-19T13:41:28.107Z,40.38
2018-10-19T13:42:32.568Z,41.98
2018-10-19T13:43:37.060Z,30.75
2018-10-19T13:44:41.165Z,38.30
2018-10-19T13:45:45.407Z,33.83
2018-10-19T13:46:49.487Z,33.28
2018-10-19T13:47:53.691Z,36.60